sensor_id;sensor_type;location;lat;lon;timestamp;temperature;humidity
12460;DHT22;6295;49.452;8.466;2023-04-03T04:14:57;3.60;99.90
12460;DHT22;6295;49.452;8.466;2023-04-03T04:18:59;3.50;99.90
12460;DHT22;6295;49.452;8.466;2023-04-03T04:23:01;3.40;99.90
12460;DHT22;6295;49.452;8.466;2023-04-03T04:27:05;3.40;99.90
12460;DHT22;6295;49.452;8.466;2023-04-03T04:43:22;3.20;99.90
12460;DHT22;6295;49.452;8.466;2023-04-03T04:47:25;3.20;99.90
12460;DHT22;6295;49.452;8.466;2023-04-03T04:59:34;3.20;99.90
12460;DHT22;6295;49.452;8.466;2023-04-03T05:03:37;3.20;99.90
12460;DHT22;6295;49.452;8.466;2023-04-03T05:07:40;3.10;99.90
12460;DHT22;6295;49.452;8.466;2023-04-03T05:11:42;3.10;99.90
12460;DHT22;6295;49.452;8.466;2023-04-03T05:15:44;3.10;99.90
12460;DHT22;6295;49.452;8.466;2023-04-03T05:31:54;3.20;99.90
12460;DHT22;6295;49.452;8.466;2023-04-03T05:36:03;3.20;99.90
12460;DHT22;6295;49.452;8.466;2023-04-03T05:44:09;3.40;99.90
12460;DHT22;6295;49.452;8.466;2023-04-03T05:52:22;3.50;99.90
12460;DHT22;6295;49.452;8.466;2023-04-03T05:56:24;3.60;99.90
12460;DHT22;6295;49.452;8.466;2023-04-03T06:00:26;3.70;99.90
12460;DHT22;6295;49.452;8.466;2023-04-03T06:04:29;3.80;99.90
12460;DHT22;6295;49.452;8.466;2023-04-03T06:08:33;3.90;99.90
12460;DHT22;6295;49.452;8.466;2023-04-03T06:16:40;4.10;99.90
12460;DHT22;6295;49.452;8.466;2023-04-03T06:20:44;4.10;99.90
12460;DHT22;6295;49.452;8.466;2023-04-03T06:24:51;4.30;99.90
12460;DHT22;6295;49.452;8.466;2023-04-03T06:28:54;4.30;99.90
12460;DHT22;6295;49.452;8.466;2023-04-03T06:32:56;4.50;99.90
12460;DHT22;6295;49.452;8.466;2023-04-03T06:37:00;4.60;99.90
12460;DHT22;6295;49.452;8.466;2023-04-03T06:41:03;4.70;99.90
12460;DHT22;6295;49.452;8.466;2023-04-03T06:45:07;4.80;99.90
12460;DHT22;6295;49.452;8.466;2023-04-03T06:49:10;4.90;99.90
12460;DHT22;6295;49.452;8.466;2023-04-03T06:53:13;5.00;99.90
12460;DHT22;6295;49.452;8.466;2023-04-03T06:57:18;5.10;99.90
12460;DHT22;6295;49.452;8.466;2023-04-03T07:01:29;5.30;99.90
12460;DHT22;6295;49.452;8.466;2023-04-03T07:05:34;5.40;99.90
12460;DHT22;6295;49.452;8.466;2023-04-03T07:13:42;5.60;99.90
12460;DHT22;6295;49.452;8.466;2023-04-03T07:17:44;5.80;99.90
12460;DHT22;6295;49.452;8.466;2023-04-03T07:21:47;6.00;99.90
12460;DHT22;6295;49.452;8.466;2023-04-03T07:25:50;6.10;99.90
12460;DHT22;6295;49.452;8.466;2023-04-03T07:29:57;6.30;99.90
12460;DHT22;6295;49.452;8.466;2023-04-03T07:34:01;6.40;99.90
12460;DHT22;6295;49.452;8.466;2023-04-03T07:42:06;6.60;99.90
12460;DHT22;6295;49.452;8.466;2023-04-03T07:46:10;6.60;99.90
12460;DHT22;6295;49.452;8.466;2023-04-03T07:50:12;6.70;99.90
12460;DHT22;6295;49.452;8.466;2023-04-03T07:54:15;6.70;99.90
12460;DHT22;6295;49.452;8.466;2023-04-03T08:02:21;6.80;99.90
12460;DHT22;6295;49.452;8.466;2023-04-03T08:06:23;6.90;99.90
12460;DHT22;6295;49.452;8.466;2023-04-03T08:10:30;7.00;99.90
12460;DHT22;6295;49.452;8.466;2023-04-03T08:14:33;7.10;99.90
12460;DHT22;6295;49.452;8.466;2023-04-03T08:18:37;7.20;99.90
12460;DHT22;6295;49.452;8.466;2023-04-03T08:22:40;7.40;99.90
12460;DHT22;6295;49.452;8.466;2023-04-03T08:30:45;7.50;99.90
12460;DHT22;6295;49.452;8.466;2023-04-03T08:34:48;7.50;99.90
12460;DHT22;6295;49.452;8.466;2023-04-03T08:38:52;7.60;99.90
12460;DHT22;6295;49.452;8.466;2023-04-03T08:43:03;7.70;99.90
12460;DHT22;6295;49.452;8.466;2023-04-03T08:47:22;7.70;99.90
12460;DHT22;6295;49.452;8.466;2023-04-03T08:55:33;7.90;99.90
12460;DHT22;6295;49.452;8.466;2023-04-03T08:59:38;8.10;99.90
12460;DHT22;6295;49.452;8.466;2023-04-03T09:03:41;8.30;99.90
12460;DHT22;6295;49.452;8.466;2023-04-03T09:07:47;8.30;99.90
12460;DHT22;6295;49.452;8.466;2023-04-03T09:12:00;8.30;99.90
12460;DHT22;6295;49.452;8.466;2023-04-03T09:16:20;8.40;99.90
12460;DHT22;6295;49.452;8.466;2023-04-03T09:20:30;8.40;99.90
12460;DHT22;6295;49.452;8.466;2023-04-03T09:24:37;8.50;99.90
12460;DHT22;6295;49.452;8.466;2023-04-03T09:28:40;8.50;99.90
12460;DHT22;6295;49.452;8.466;2023-04-03T09:32:48;8.60;99.90
12460;DHT22;6295;49.452;8.466;2023-04-03T09:36:55;8.60;99.90
12460;DHT22;6295;49.452;8.466;2023-04-03T09:45:27;8.90;99.90
12460;DHT22;6295;49.452;8.466;2023-04-03T09:49:35;9.10;99.90
12460;DHT22;6295;49.452;8.466;2023-04-03T09:53:39;9.10;99.90
12460;DHT22;6295;49.452;8.466;2023-04-03T09:57:48;9.20;99.90
12460;DHT22;6295;49.452;8.466;2023-04-03T10:06:14;9.30;99.90
12460;DHT22;6295;49.452;8.466;2023-04-03T10:14:29;9.20;99.00
12460;DHT22;6295;49.452;8.466;2023-04-03T10:18:41;9.10;99.00
12460;DHT22;6295;49.452;8.466;2023-04-03T10:22:56;9.10;98.80
12460;DHT22;6295;49.452;8.466;2023-04-03T10:31:17;9.20;98.80
12460;DHT22;6295;49.452;8.466;2023-04-03T10:35:33;9.30;97.00
12460;DHT22;6295;49.452;8.466;2023-04-03T10:39:43;9.30;96.60
12460;DHT22;6295;49.452;8.466;2023-04-03T10:43:59;9.20;95.80
12460;DHT22;6295;49.452;8.466;2023-04-03T10:48:13;9.10;96.70
12460;DHT22;6295;49.452;8.466;2023-04-03T10:56:30;9.00;96.90
12460;DHT22;6295;49.452;8.466;2023-04-03T11:00:40;9.00;97.90
12460;DHT22;6295;49.452;8.466;2023-04-03T11:04:49;9.20;96.90
12460;DHT22;6295;49.452;8.466;2023-04-03T11:08:59;11.10;98.20
12460;DHT22;6295;49.452;8.466;2023-04-03T11:13:12;9.90;98.40
12460;DHT22;6295;49.452;8.466;2023-04-03T11:17:23;9.50;98.00
12460;DHT22;6295;49.452;8.466;2023-04-03T11:21:33;9.60;97.30
12460;DHT22;6295;49.452;8.466;2023-04-03T11:25:38;9.50;96.90
12460;DHT22;6295;49.452;8.466;2023-04-03T11:29:44;9.50;96.50
12460;DHT22;6295;49.452;8.466;2023-04-03T11:33:52;9.60;96.80
12460;DHT22;6295;49.452;8.466;2023-04-03T11:38:00;9.50;95.50
12460;DHT22;6295;49.452;8.466;2023-04-03T11:42:16;9.40;95.40
12460;DHT22;6295;49.452;8.466;2023-04-03T11:50:50;9.30;96.10
12460;DHT22;6295;49.452;8.466;2023-04-03T11:54:54;9.30;95.80
12460;DHT22;6295;49.452;8.466;2023-04-03T11:59:23;9.30;95.30
12460;DHT22;6295;49.452;8.466;2023-04-03T12:20:57;9.40;96.80
12460;DHT22;6295;49.452;8.466;2023-04-03T12:29:47;9.30;96.90
12460;DHT22;6295;49.452;8.466;2023-04-03T12:34:05;9.40;96.80
12460;DHT22;6295;49.452;8.466;2023-04-03T12:38:46;9.40;95.20
12460;DHT22;6295;49.452;8.466;2023-04-03T12:55:23;9.40;95.70
12460;DHT22;6295;49.452;8.466;2023-04-03T12:59:26;9.40;96.10
12460;DHT22;6295;49.452;8.466;2023-04-03T13:07:35;9.60;94.10
12460;DHT22;6295;49.452;8.466;2023-04-03T13:11:41;9.60;94.30
12460;DHT22;6295;49.452;8.466;2023-04-03T13:19:52;9.70;95.70
12460;DHT22;6295;49.452;8.466;2023-04-03T13:28:02;10.00;94.50
12460;DHT22;6295;49.452;8.466;2023-04-03T13:32:05;10.00;93.80
12460;DHT22;6295;49.452;8.466;2023-04-03T13:36:17;10.10;94.30
12460;DHT22;6295;49.452;8.466;2023-04-03T13:40:20;10.30;94.50
12460;DHT22;6295;49.452;8.466;2023-04-03T13:44:29;10.30;93.80
12460;DHT22;6295;49.452;8.466;2023-04-03T13:48:41;10.20;93.10
12460;DHT22;6295;49.452;8.466;2023-04-03T13:52:49;10.00;93.00
12460;DHT22;6295;49.452;8.466;2023-04-03T13:56:53;10.00;92.90
12460;DHT22;6295;49.452;8.466;2023-04-03T14:01:06;10.10;93.40
12460;DHT22;6295;49.452;8.466;2023-04-03T14:05:08;10.20;92.10
12460;DHT22;6295;49.452;8.466;2023-04-03T14:13:17;9.90;91.30
12460;DHT22;6295;49.452;8.466;2023-04-03T14:17:22;9.80;91.20
12460;DHT22;6295;49.452;8.466;2023-04-03T14:21:26;9.80;91.80
12460;DHT22;6295;49.452;8.466;2023-04-03T14:25:29;9.90;90.60
12460;DHT22;6295;49.452;8.466;2023-04-03T14:29:31;10.00;90.00
12460;DHT22;6295;49.452;8.466;2023-04-03T14:33:33;10.20;89.20
12460;DHT22;6295;49.452;8.466;2023-04-03T14:37:37;10.30;89.60
12460;DHT22;6295;49.452;8.466;2023-04-03T14:41:41;10.50;86.60
12460;DHT22;6295;49.452;8.466;2023-04-03T14:45:44;10.50;84.40
12460;DHT22;6295;49.452;8.466;2023-04-03T14:53:48;10.50;84.20
12460;DHT22;6295;49.452;8.466;2023-04-03T14:57:54;10.60;83.30
12460;DHT22;6295;49.452;8.466;2023-04-03T15:01:57;10.70;82.70
12460;DHT22;6295;49.452;8.466;2023-04-03T15:06:00;10.80;82.70
12460;DHT22;6295;49.452;8.466;2023-04-03T15:10:14;10.80;79.50
12460;DHT22;6295;49.452;8.466;2023-04-03T15:14:18;10.90;78.30
12460;DHT22;6295;49.452;8.466;2023-04-03T15:26:28;11.00;80.10
12460;DHT22;6295;49.452;8.466;2023-04-03T15:30:32;11.10;79.00
12460;DHT22;6295;49.452;8.466;2023-04-03T15:34:37;11.10;76.20
12460;DHT22;6295;49.452;8.466;2023-04-03T15:38:39;11.00;76.20
12460;DHT22;6295;49.452;8.466;2023-04-03T15:42:41;10.80;76.70
12460;DHT22;6295;49.452;8.466;2023-04-03T15:46:45;10.80;73.20
12460;DHT22;6295;49.452;8.466;2023-04-03T15:50:47;10.80;74.40
12460;DHT22;6295;49.452;8.466;2023-04-03T15:54:49;10.80;74.50
12460;DHT22;6295;49.452;8.466;2023-04-03T15:58:52;10.90;74.80
12460;DHT22;6295;49.452;8.466;2023-04-03T16:03:00;10.90;73.10
12460;DHT22;6295;49.452;8.466;2023-04-03T16:07:04;11.00;73.50
12460;DHT22;6295;49.452;8.466;2023-04-03T16:15:10;11.10;73.40
12460;DHT22;6295;49.452;8.466;2023-04-03T16:19:14;11.10;73.40
12460;DHT22;6295;49.452;8.466;2023-04-03T16:23:16;11.20;73.30
12460;DHT22;6295;49.452;8.466;2023-04-03T16:27:18;11.10;73.40
12460;DHT22;6295;49.452;8.466;2023-04-03T16:31:20;10.90;72.50
12460;DHT22;6295;49.452;8.466;2023-04-03T16:35:24;10.70;70.60
12460;DHT22;6295;49.452;8.466;2023-04-03T16:43:29;10.30;71.60
12460;DHT22;6295;49.452;8.466;2023-04-03T16:47:31;10.20;72.20
12460;DHT22;6295;49.452;8.466;2023-04-03T16:51:35;10.30;71.10
12460;DHT22;6295;49.452;8.466;2023-04-03T16:55:37;10.30;71.00
12460;DHT22;6295;49.452;8.466;2023-04-03T16:59:40;10.30;71.20
12460;DHT22;6295;49.452;8.466;2023-04-03T17:03:43;10.30;71.00
12460;DHT22;6295;49.452;8.466;2023-04-03T17:07:46;10.30;71.30
12460;DHT22;6295;49.452;8.466;2023-04-03T17:11:51;10.30;72.10
12460;DHT22;6295;49.452;8.466;2023-04-03T17:15:53;10.20;71.60
12460;DHT22;6295;49.452;8.466;2023-04-03T17:19:56;10.20;73.30
12460;DHT22;6295;49.452;8.466;2023-04-03T17:24:02;10.10;74.20
12460;DHT22;6295;49.452;8.466;2023-04-03T17:28:05;10.10;73.60
12460;DHT22;6295;49.452;8.466;2023-04-03T17:36:09;9.70;74.10
12460;DHT22;6295;49.452;8.466;2023-04-03T17:40:13;9.60;74.80
12460;DHT22;6295;49.452;8.466;2023-04-03T17:48:24;9.30;75.90
12460;DHT22;6295;49.452;8.466;2023-04-03T17:52:27;9.10;77.00
12460;DHT22;6295;49.452;8.466;2023-04-03T17:56:33;9.00;78.30
